SondeTracker

Meteorological Radiosondes Database

Operations

Sounding was ended - last measurement: 2022-06-24 01:09:30z

MAP
About Radiosonde

Number: T3251201

Launch Site: Galeão (BR)

Type: RS41

AUX: NO

Frequency: 405.325 MHz

Max Speed: 159 km/h at 14344 m

Average Speed: 60.58 km/h

Max Altitude: 23728 m

Average Ascent Speed: 7.15 m/s

Average Descent Speed: 9.57 m/s

Status: UNKNOWN

Status Changes
Launch Site Type AUX Frequency Status Finder Landing Point Description Changes made by
APRS Statistics

Received Frames: 241

First Frame [UTC]: 2022-06-23 23:37:30z

Last Frame [UTC]: 2022-06-24 01:09:30z

Receivers: PU1UHF-11, PU1XMG-14, PY2PE-11

Flight Time: 01:32:00 h

Distance From First Measurement: 81.83 km

Nearest City: Araruama (BR) [19.45 km]

Nearest Hunter: PU1JDI-11 [80.93 km]

Ground Altitude: 26 m

Distance from QTH: 0.00 km

APRS Data
Receiver Number Date/Time [UTC] φ λ Course [°] Speed [km/h] Altitude [m] Description
PU1UHF-11T32512012022-06-24 01:09:30-22.7349-42.45812609599Clb=-6.5m/s t=23.8C h=49.4% p=949.1hPa 405.325 MHz Type=RS41-SGP ser=T3251201 http://sondehub.org/T3251201 * http://radiosondy.info/sonde.php?sondenumber=T32512
PU1UHF-11T32512012022-06-24 01:09:00-22.7351-42.4577157786Clb=-6.0m/s t=22.5C h=43.9% p=929.3hPa 405.325 MHz Type=RS41-SGP ser=T3251201 http://sondehub.org/T3251201 * http://radiosondy.info/sonde.php?sondenumber=T32512
PU1UHF-11T32512012022-06-24 01:08:31-22.7358-42.45854713979Clb=-6.3m/s t=22.5C h=25.1% p=908.7hPa 405.325 MHz Type=RS41-SGP ser=T3251201 http://sondehub.org/T3251201 * http://radiosondy.info/sonde.php?sondenumber=T32512
PU1UHF-11T32512012022-06-24 01:08:00-22.7362-42.45872871082Clb=-5.9m/s t=22.1C h=17.0% p=897.9hPa 405.325 MHz Type=RS41-SGP ser=T3251201 http://sondehub.org/T3251201 * http://radiosondy.info/sonde.php?sondenumber=T32512
PU1UHF-11T32512012022-06-24 01:07:30-22.7366-42.458629671265Clb=-6.0m/s t=21.4C h=9.1% p=879.2hPa 405.325 MHz Type=RS41-SGP ser=T3251201 http://sondehub.org/T3251201 * http://radiosondy.info/sonde.php?sondenumber=T325120
PU1UHF-11T32512012022-06-24 01:07:00-22.7367-42.4577270151450Clb=-6.0m/s t=20.2C h=6.9% p=860.5hPa 405.325 MHz Type=RS41-SGP ser=T3251201 http://sondehub.org/T3251201 * http://radiosondy.info/sonde.php?sondenumber=T325120
PU1UHF-11T32512012022-06-24 01:06:30-22.7371-42.4562305221638Clb=-6.3m/s t=18.9C h=7.4% p=842.0hPa 405.325 MHz Type=RS41-SGP ser=T3251201 http://sondehub.org/T3251201 * http://radiosondy.info/sonde.php?sondenumber=T325120
PU1UHF-11T32512012022-06-24 01:06:00-22.7382-42.4544298281831Clb=-6.6m/s t=18.4C h=7.0% p=823.2hPa 405.325 MHz Type=RS41-SGP ser=T3251201 http://sondehub.org/T3251201 * http://radiosondy.info/sonde.php?sondenumber=T325120
PU1UHF-11T32512012022-06-24 01:05:30-22.7393-42.4523297302042Clb=-9.2m/s t=16.7C h=18.6% p=803.0hPa 405.325 MHz Type=RS41-SGP ser=T3251201 http://sondehub.org/T3251201 * http://radiosondy.info/sonde.php?sondenumber=T32512
PU1UHF-11T32512012022-06-24 01:05:00-22.7402-42.4502295242386Clb=-12.4m/s t=14.1C h=15.3% p=771.3hPa 405.325 MHz Type=RS41-SGP ser=T3251201 http://sondehub.org/T3251201 * http://radiosondy.info/sonde.php?sondenumber=T3251
PU1UHF-11T32512012022-06-24 01:04:31-22.7405-42.4487269192665Clb=-9.4m/s t=12.5C h=7.2% p=746.0hPa 405.325 MHz Type=RS41-SGP ser=T3251201 http://sondehub.org/T3251201 * http://radiosondy.info/sonde.php?sondenumber=T325120
PU1UHF-11T32512012022-06-24 01:04:00-22.7402-42.4472251192934Clb=-10.2m/s t=10.4C h=5.9% p=722.5hPa 405.325 MHz Type=RS41-SGP ser=T3251201 http://sondehub.org/T3251201 * http://radiosondy.info/sonde.php?sondenumber=T32512
PU1UHF-11T32512012022-06-24 01:03:30-22.7395-42.446417393231Clb=-8.8m/s t=9.4C h=1.3% p=697.1hPa 405.325 MHz Type=RS41-SGP ser=T3251201 http://sondehub.org/T3251201 * http://radiosondy.info/sonde.php?sondenumber=T3251201
PU1UHF-11T32512012022-06-24 01:03:00-22.7382-42.4464187263489Clb=-8.6m/s t=8.7C h=4.2% p=675.8hPa 405.325 MHz Type=RS41-SGP ser=T3251201 http://sondehub.org/T3251201 * http://radiosondy.info/sonde.php?sondenumber=T3251201
PU1UHF-11T32512012022-06-24 01:02:30-22.7363-42.4461190263725Clb=-8.6m/s t=6.5C h=14.7% p=656.9hPa 405.325 MHz Type=RS41-SGP ser=T3251201 http://sondehub.org/T3251201 * http://radiosondy.info/sonde.php?sondenumber=T325120
PU1UHF-11T32512012022-06-24 01:02:00-22.7344-42.4457190223966Clb=-8.3m/s t=4.2C h=17.4% p=638.0hPa 405.325 MHz Type=RS41-SGP ser=T3251201 http://sondehub.org/T3251201 * http://radiosondy.info/sonde.php?sondenumber=T325120
PU1UHF-11T32512012022-06-24 01:01:30-22.733-42.4456184134201Clb=-8.7m/s t=2.1C h=20.3% p=619.6hPa 405.325 MHz Type=RS41-SGP ser=T3251201 http://sondehub.org/T3251201 * http://radiosondy.info/sonde.php?sondenumber=T325120
PU1UHF-11T32512012022-06-24 01:00:00-22.7323-42.447566244916Clb=-8.0m/s t=-4.0C h=27.0% p=566.6hPa 405.325 MHz Type=RS41-SGP ser=T3251201 http://sondehub.org/T3251201 * http://radiosondy.info/sonde.php?sondenumber=T32512
PU1UHF-11T32512012022-06-24 00:59:30-22.7334-42.4566445149Clb=-8.1m/s t=-5.4C h=24.5% p=550.1hPa 405.325 MHz Type=RS41-SGP ser=T3251201 http://sondehub.org/T3251201 * http://radiosondy.info/sonde.php?sondenumber=T32512
PU1UHF-11T32512012022-06-24 00:59:00-22.7339-42.453895465394Clb=-8.4m/s t=-6.1C h=15.0% p=533.2hPa 405.325 MHz Type=RS41-SGP ser=T3251201 http://sondehub.org/T3251201 * http://radiosondy.info/sonde.php?sondenumber=T32512
PU1UHF-11T32512012022-06-24 00:58:30-22.7334-42.4579102525635Clb=-8.4m/s t=-7.8C h=14.9% p=517.1hPa 405.325 MHz Type=RS41-SGP ser=T3251201 http://sondehub.org/T3251201 * http://radiosondy.info/sonde.php?sondenumber=T32512
PU1UHF-11T32512012022-06-24 00:58:00-22.7327-42.462497575883Clb=-8.6m/s t=-9.8C h=13.8% p=501.0hPa 405.325 MHz Type=RS41-SGP ser=T3251201 http://sondehub.org/T3251201 * http://radiosondy.info/sonde.php?sondenumber=T32512
PU1UHF-11T32512012022-06-24 00:57:30-22.7321-42.4665100446137Clb=-8.9m/s t=-9.5C h=1.6% p=484.7hPa 405.325 MHz Type=RS41-SGP ser=T3251201 http://sondehub.org/T3251201 * http://radiosondy.info/sonde.php?sondenumber=T325120
PU1UHF-11T32512012022-06-24 00:57:00-22.7313-42.4698101376412Clb=-9.2m/s t=-11.4C h=5.9% p=467.9hPa 405.325 MHz Type=RS41-SGP ser=T3251201 http://sondehub.org/T3251201 * http://radiosondy.info/sonde.php?sondenumber=T32512
PU1UHF-11T32512012022-06-24 00:56:00-22.7318-42.476367436984Clb=-9.5m/s t=-16.0C h=9.2% p=434.0hPa 405.325 MHz Type=RS41-SGP ser=T3251201 http://sondehub.org/T3251201 * http://radiosondy.info/sonde.php?sondenumber=T32512
PU1UHF-11T32512012022-06-24 00:55:30-22.7333-42.479657527259Clb=-9.3m/s t=-18.5C h=11.0% p=418.4hPa 405.325 MHz Type=RS41-SGP ser=T3251201 http://sondehub.org/T3251201 * http://radiosondy.info/sonde.php?sondenumber=T3251
PU1UHF-11T32512012022-06-24 00:55:00-22.7355-42.483660507547Clb=-9.0m/s t=-20.9C h=9.6% p=402.6hPa 405.325 MHz Type=RS41-SGP ser=T3251201 http://sondehub.org/T3251201 * http://radiosondy.info/sonde.php?sondenumber=T32512
PU1UHF-11T32512012022-06-24 00:54:00-22.739-42.491262698096Clb=-11.7m/s t=-24.6C h=4.6% p=373.8hPa 405.325 MHz Type=RS41-SGP ser=T3251201 http://sondehub.org/T3251201 * http://radiosondy.info/sonde.php?sondenumber=T3251
PU1XMG-14T32512012022-06-24 00:53:52-22.7416-42.497569858459Clb=-11.9m/s t=-25.5C h=4.2% p=355.7hPa 405.301 MHz Type=RS41-SGP ser=T3251201 Radiosonde
PU1UHF-11T32512012022-06-24 00:53:30-22.7417-42.497770878472Clb=-12.2m/s t=-25.6C h=4.3% p=355.1hPa 405.325 MHz Type=RS41-SGP ser=T3251201 http://sondehub.org/T3251201 * http://radiosondy.info/sonde.php?sondenumber=T3251
PU1UHF-11T32512012022-06-24 00:53:00-22.7433-42.504378898814Clb=-12.2m/s t=-28.2C h=6.2% p=338.7hPa 405.325 MHz Type=RS41-SGP ser=T3251201 http://sondehub.org/T3251201 * http://radiosondy.info/sonde.php?sondenumber=T3251
PU1UHF-11T32512012022-06-24 00:52:00-22.7447-42.518787989493Clb=-10.4m/s t=-33.8C h=8.8% p=307.7hPa 405.325 MHz Type=RS41-SGP ser=T3251201 http://sondehub.org/T3251201 * http://radiosondy.info/sonde.php?sondenumber=T3251
PU1XMG-14T32512012022-06-24 00:51:48-22.7453-42.527811069795Clb=-9.5m/s t=-36.3C h=17.1% p=294.8hPa 405.301 MHz Type=RS41-SGP ser=T3251201 Radiosonde
PU1UHF-11T32512012022-06-24 00:51:30-22.7453-42.527811069795Clb=-9.5m/s t=-36.3C h=17.1% p=294.8hPa 405.325 MHz Type=RS41-SGP ser=T3251201 http://sondehub.org/T3251201 * http://radiosondy.info/sonde.php?sondenumber=T3251
PU1UHF-11T32512012022-06-24 00:51:00-22.7469-42.53577711110081Clb=-9.6m/s t=-38.1C h=23.2% p=282.9hPa 405.325 MHz Type=RS41-SGP ser=T3251201 http://sondehub.org/T3251201 * http://radiosondy.info/sonde.php?sondenumber=T3251
PU1UHF-11T32512012022-06-24 00:50:30-22.7489-42.54487611710358Clb=-8.8m/s t=-40.7C h=36.5% p=271.7hPa 405.325 MHz Type=RS41-SGP ser=T3251201 http://sondehub.org/T3251201 * http://radiosondy.info/sonde.php?sondenumber=T3251
PU1UHF-11T32512012022-06-24 00:50:00-22.7513-42.55447412410627Clb=-9.0m/s t=-43.2C h=38.8% p=261.2hPa 405.325 MHz Type=RS41-SGP ser=T3251201 http://sondehub.org/T3251201 * http://radiosondy.info/sonde.php?sondenumber=T3251
PU1UHF-11T32512012022-06-24 00:49:30-22.7536-42.56397611510890Clb=-9.0m/s t=-45.4C h=29.7% p=251.1hPa 405.325 MHz Type=RS41-SGP ser=T3251201 http://sondehub.org/T3251201 * http://radiosondy.info/sonde.php?sondenumber=T3251
PU1UHF-11T32512012022-06-24 00:49:00-22.7558-42.57327611711153Clb=-8.9m/s t=-46.4C h=17.5% p=241.4hPa 405.325 MHz Type=RS41-SGP ser=T3251201 http://sondehub.org/T3251201 * http://radiosondy.info/sonde.php?sondenumber=T3251
PU1XMG-14T32512012022-06-24 00:48:42-22.757-42.57837611511306Clb=-9.1m/s t=-47.8C h=18.6% p=235.9hPa 405.301 MHz Type=RS41-SGP ser=T3251201 Radiosonde
PU1UHF-11T32512012022-06-24 00:47:30-22.7618-42.60117612811995Clb=-9.7m/s t=-53.1C h=15.4% p=212.4hPa 405.325 MHz Type=RS41-SGP ser=T3251201 http://sondehub.org/T3251201 * http://radiosondy.info/sonde.php?sondenumber=T3251
PU1UHF-11T32512012022-06-24 00:47:00-22.7643-42.61167613712272Clb=-9.2m/s t=-55.1C h=19.7% p=203.4hPa 405.325 MHz Type=RS41-SGP ser=T3251201 http://sondehub.org/T3251201 * http://radiosondy.info/sonde.php?sondenumber=T3251
PY2PE-11T32512012022-06-24 00:46:48-22.7652-42.6167813912384Clb=-9.5m/s t=-55.9C h=23.9% p=200.0hPa 405.300 MHz Type=RS41-SGP ser=T3251201 Radiosonde
PU1XMG-14T32512012022-06-24 00:46:38-22.7659-42.61977813912477Clb=-9.6m/s t=-56.7C h=29.8% p=197.1hPa 405.301 MHz Type=RS41-SGP ser=T3251201 Radiosonde
PU1UHF-11T32512012022-06-24 00:46:30-22.7665-42.62277914112554Clb=-9.8m/s t=-57.5C h=34.4% p=194.7hPa 405.325 MHz Type=RS41-SGP ser=T3251201 http://sondehub.org/T3251201 * http://radiosondy.info/sonde.php?sondenumber=T3251
PU1UHF-11T32512012022-06-24 00:46:00-22.7686-42.63437913912849Clb=-10.3m/s t=-59.8C h=36.8% p=185.8hPa 405.325 MHz Type=RS41-SGP ser=T3251201 http://sondehub.org/T3251201 * http://radiosondy.info/sonde.php?sondenumber=T325
PY2PE-11T32512012022-06-24 00:45:46-22.7694-42.63918014112978Clb=-10.2m/s t=-60.8C h=35.6% p=182.0hPa 405.300 MHz Type=RS41-SGP ser=T3251201 Radiosonde
PU1UHF-11T32512012022-06-24 00:45:30-22.7704-42.64518113513143Clb=-10.5m/s t=-61.9C h=27.0% p=177.3hPa 405.325 MHz Type=RS41-SGP ser=T3251201 http://sondehub.org/T3251201 * http://radiosondy.info/sonde.php?sondenumber=T325
PU1XMG-14T32512012022-06-24 00:45:04-22.7711-42.65418913313409Clb=-11.1m/s t=-63.6C h=24.5% p=169.8hPa 405.301 MHz Type=RS41-SGP ser=T3251201 Radiosonde
PU1UHF-11T32512012022-06-24 00:45:00-22.7711-42.65599113513463Clb=-10.9m/s t=-64.1C h=24.9% p=168.4hPa 405.325 MHz Type=RS41-SGP ser=T3251201 http://sondehub.org/T3251201 * http://radiosondy.info/sonde.php?sondenumber=T325
PY2PE-11T32512012022-06-24 00:44:44-22.7703-42.66589614313740Clb=-10.6m/s t=-66.1C h=25.2% p=161.0hPa 405.300 MHz Type=RS41-SGP ser=T3251201 Radiosonde
PU1XMG-14T32512012022-06-24 00:44:02-22.7696-42.67869015614035Clb=-10.1m/s t=-67.5C h=21.0% p=153.3hPa 405.301 MHz Type=RS41-SGP ser=T3251201 Radiosonde
PU1UHF-11T32512012022-06-24 00:44:00-22.7696-42.67998815414065Clb=-9.9m/s t=-67.7C h=21.0% p=152.5hPa 405.325 MHz Type=RS41-SGP ser=T3251201 http://sondehub.org/T3251201 * http://radiosondy.info/sonde.php?sondenumber=T3251
PY2PE-11T32512012022-06-24 00:43:42-22.7698-42.68748615214236Clb=-9.2m/s t=-68.6C h=19.1% p=148.3hPa 405.300 MHz Type=RS41-SGP ser=T3251201 Radiosonde
PU1UHF-11T32512012022-06-24 00:43:30-22.7702-42.69248415914344Clb=-11.1m/s t=-69.4C h=17.7% p=145.6hPa 405.325 MHz Type=RS41-SGP ser=T3251201 http://sondehub.org/T3251201 * http://radiosondy.info/sonde.php?sondenumber=T325
PU1XMG-14T32512012022-06-24 00:43:00-22.7717-42.70478215614601Clb=-8.3m/s t=-71.6C h=18.0% p=139.5hPa 405.301 MHz Type=RS41-SGP ser=T3251201 Radiosonde
PU1UHF-11T32512012022-06-24 00:42:30-22.7739-42.71797814614873Clb=-8.4m/s t=-72.0C h=15.4% p=133.2hPa 405.325 MHz Type=RS41-SGP ser=T3251201 http://sondehub.org/T3251201 * http://radiosondy.info/sonde.php?sondenumber=T3251
PY2PE-11T32512012022-06-24 00:42:08-22.776-42.72747213515089Clb=-8.6m/s t=-73.3C h=15.9% p=128.5hPa 405.300 MHz Type=RS41-SGP ser=T3251201 Radiosonde
PU1UHF-11T32512012022-06-24 00:42:00-22.7764-42.72877212815124Clb=-9.1m/s t=-73.0C h=15.3% p=127.7hPa 405.325 MHz Type=RS41-SGP ser=T3251201 http://sondehub.org/T3251201 * http://radiosondy.info/sonde.php?sondenumber=T3251
PU1XMG-14T32512012022-06-24 00:41:58-22.7778-42.73417710415284Clb=-8.7m/s t=-69.7C h=10.2% p=124.4hPa 405.301 MHz Type=RS41-SGP ser=T3251201 Radiosonde
PU1UHF-11T32512012022-06-24 00:41:30-22.7784-42.73748010215393Clb=-9.1m/s t=-70.0C h=9.8% p=122.2hPa 405.325 MHz Type=RS41-SGP ser=T3251201 http://sondehub.org/T3251201 * http://radiosondy.info/sonde.php?sondenumber=T32512
PU1UHF-11T32512012022-06-24 00:40:00-22.7761-42.76229711116242Clb=-9.9m/s t=-72.8C h=7.7% p=105.8hPa 405.325 MHz Type=RS41-SGP ser=T3251201 http://sondehub.org/T3251201 * http://radiosondy.info/sonde.php?sondenumber=T32512
PU1XMG-14T32512012022-06-24 00:39:54-22.7755-42.7689111716430Clb=-9.8m/s t=-72.4C h=7.0% p=102.5hPa 405.301 MHz Type=RS41-SGP ser=T3251201 Radiosonde
PU1UHF-11T32512012022-06-24 00:39:30-22.7754-42.77149211516540Clb=-10.2m/s t=-72.5C h=6.6% p=100.6hPa 405.325 MHz Type=RS41-SGP ser=T3251201 http://sondehub.org/T3251201 * http://radiosondy.info/sonde.php?sondenumber=T3251
PY2PE-11T32512012022-06-24 00:39:02-22.7747-42.7795978916837Clb=-10.5m/s t=-72.0C h=5.9% p=95.7hPa 405.300 MHz Type=RS41-SGP ser=T3251201 Radiosonde
PU1UHF-11T32512012022-06-24 00:39:00-22.7747-42.7798979116848Clb=-10.2m/s t=-71.9C h=5.8% p=95.5hPa 405.325 MHz Type=RS41-SGP ser=T3251201 http://sondehub.org/T3251201 * http://radiosondy.info/sonde.php?sondenumber=T32512
PU1XMG-14T32512012022-06-24 00:38:52-22.7742-42.78241059116962Clb=-10.5m/s t=-71.4C h=5.3% p=93.7hPa 405.301 MHz Type=RS41-SGP ser=T3251201 Radiosonde
PU1UHF-11T32512012022-06-24 00:38:00-22.7719-42.7937977617471Clb=-10.5m/s t=-71.0C h=5.0% p=86.0hPa 405.325 MHz Type=RS41-SGP ser=T3251201 http://sondehub.org/T3251201 * http://radiosondy.info/sonde.php?sondenumber=T32512
PU1XMG-14T32512012022-06-24 00:37:50-22.7717-42.7956936517578Clb=-10.7m/s t=-69.2C h=4.3% p=84.5hPa 405.301 MHz Type=RS41-SGP ser=T3251201 Radiosonde
PU1UHF-11T32512012022-06-24 00:37:30-22.7716-42.79891065217798Clb=-10.7m/s t=-68.1C h=3.7% p=81.5hPa 405.325 MHz Type=RS41-SGP ser=T3251201 http://sondehub.org/T3251201 * http://radiosondy.info/sonde.php?sondenumber=T32512
PU1XMG-14T32512012022-06-24 00:37:18-22.7711-42.80031114617919Clb=-11.0m/s t=-67.9C h=3.5% p=79.9hPa 405.301 MHz Type=RS41-SGP ser=T3251201 Radiosonde
PU1XMG-14T32512012022-06-24 00:36:16-22.7715-42.8051481318623Clb=-11.8m/s t=-67.5C h=3.0% p=71.1hPa 405.301 MHz Type=RS41-SGP ser=T3251201 Radiosonde
PU1UHF-11T32512012022-06-24 00:36:00-22.7716-42.8059952818821Clb=-12.0m/s t=-68.8C h=3.3% p=68.8hPa 405.325 MHz Type=RS41-SGP ser=T3251201 http://sondehub.org/T3251201 * http://radiosondy.info/sonde.php?sondenumber=T32512
PY2PE-11T32512012022-06-24 00:35:56-22.7717-42.8065642818915Clb=-11.5m/s t=-68.6C h=3.3% p=67.8hPa 405.300 MHz Type=RS41-SGP ser=T3251201 Radiosonde
PU1XMG-14T32512012022-06-24 00:35:14-22.7725-42.8076112619363Clb=-13.6m/s t=-64.0C h=2.5% p=63.0hPa 405.301 MHz Type=RS41-SGP ser=T3251201 Radiosonde
PU1UHF-11T32512012022-06-24 00:35:00-22.7722-42.80821232419556Clb=-13.8m/s t=-63.5C h=2.4% p=61.0hPa 405.325 MHz Type=RS41-SGP ser=T3251201 http://sondehub.org/T3251201 * http://radiosondy.info/sonde.php?sondenumber=T32512
PU1UHF-11T32512012022-06-24 00:34:30-22.7718-42.8089219919957Clb=-17.0m/s t=-61.5C h=2.1% p=57.3hPa 405.325 MHz Type=RS41-SGP ser=T3251201 http://sondehub.org/T3251201 * http://radiosondy.info/sonde.php?sondenumber=T32512
PU1XMG-14T32512012022-06-24 00:34:12-22.7714-42.8086335720249Clb=-13.8m/s t=-60.8C h=2.1% p=54.7hPa 405.301 MHz Type=RS41-SGP ser=T3251201 Radiosonde
PU1UHF-11T32512012022-06-24 00:34:00-22.7719-42.8084291420434Clb=-14.9m/s t=-59.0C h=1.8% p=53.1hPa 405.325 MHz Type=RS41-SGP ser=T3251201 http://sondehub.org/T3251201 * http://radiosondy.info/sonde.php?sondenumber=T32512
PU1UHF-11T32512012022-06-24 00:33:30-22.771-42.80791861920890Clb=-13.5m/s t=-61.2C h=2.0% p=49.3hPa 405.325 MHz Type=RS41-SGP ser=T3251201 http://sondehub.org/T3251201 * http://radiosondy.info/sonde.php?sondenumber=T32512
PY2PE-11T32512012022-06-24 00:33:20-22.7704-42.80791773121005Clb=-12.7m/s t=-60.9C h=2.0% p=48.4hPa 405.301 MHz Type=RS41-SGP ser=T3251201 Radiosonde
PU1XMG-14T32512012022-06-24 00:33:10-22.7699-42.8081153921127Clb=-12.4m/s t=-60.1C h=2.0% p=47.5hPa 405.301 MHz Type=RS41-SGP ser=T3251201 Radiosonde
PU1UHF-11T32512012022-06-24 00:33:00-22.7698-42.8082357721262Clb=-12.6m/s t=-59.1C h=1.8% p=46.5hPa 405.325 MHz Type=RS41-SGP ser=T3251201 http://sondehub.org/T3251201 * http://radiosondy.info/sonde.php?sondenumber=T32512
PY2PE-11T32512012022-06-24 00:32:18-22.7697-42.80833391121769Clb=-12.6m/s t=-59.9C h=1.8% p=42.9hPa 405.301 MHz Type=RS41-SGP ser=T3251201 Radiosonde
PU1XMG-14T32512012022-06-24 00:32:08-22.7701-42.80772961521970Clb=-11.4m/s t=-60.0C h=1.9% p=41.5hPa 405.301 MHz Type=RS41-SGP ser=T3251201 Radiosonde
PU1UHF-11T32512012022-06-24 00:32:00-22.7701-42.80773051521981Clb=-11.4m/s t=-60.0C h=1.8% p=41.5hPa 405.325 MHz Type=RS41-SGP ser=T3251201 http://sondehub.org/T3251201 * http://radiosondy.info/sonde.php?sondenumber=T32512
PU1UHF-11T32512012022-06-24 00:31:30-22.7708-42.80653001522324Clb=-10.5m/s t=-59.4C h=1.7% p=39.3hPa 405.325 MHz Type=RS41-SGP ser=T3251201 http://sondehub.org/T3251201 * http://radiosondy.info/sonde.php?sondenumber=T32512
PY2PE-11T32512012022-06-24 00:31:16-22.7709-42.8061279722458Clb=-10.3m/s t=-59.8C h=1.8% p=38.5hPa 405.301 MHz Type=RS41-SGP ser=T3251201 Radiosonde
PU1XMG-14T32512012022-06-24 00:31:06-22.771-42.80572991322579Clb=-10.2m/s t=-59.0C h=1.7% p=37.7hPa 405.301 MHz Type=RS41-SGP ser=T3251201 Radiosonde
PU1UHF-11T32512012022-06-24 00:31:00-22.7711-42.80552881322629Clb=-11.2m/s t=-59.3C h=1.7% p=37.4hPa 405.325 MHz Type=RS41-SGP ser=T3251201 http://sondehub.org/T3251201 * http://radiosondy.info/sonde.php?sondenumber=T32512
PU1UHF-11T32512012022-06-24 00:30:30-22.7712-42.80442461122942Clb=-11.8m/s t=-60.4C h=1.9% p=35.6hPa 405.325 MHz Type=RS41-SGP ser=T3251201 http://sondehub.org/T3251201 * http://radiosondy.info/sonde.php?sondenumber=T32512
PY2PE-11T32512012022-06-24 00:30:14-22.7712-42.8043253223116Clb=-10.9m/s t=-59.7C h=1.8% p=34.6hPa 405.301 MHz Type=RS41-SGP ser=T3251201 Radiosonde
PU1XMG-14T32512012022-06-24 00:30:04-22.7714-42.8042304723231Clb=-11.9m/s t=-59.1C h=1.8% p=34.0hPa 405.301 MHz Type=RS41-SGP ser=T3251201 Radiosonde
PU1UHF-11T32512012022-06-24 00:30:00-22.7714-42.8041274923277Clb=-12.0m/s t=-59.0C h=1.8% p=33.7hPa 405.325 MHz Type=RS41-SGP ser=T3251201 http://sondehub.org/T3251201 * http://radiosondy.info/sonde.php?sondenumber=T32512
PU1UHF-11T32512012022-06-24 00:29:30-22.7714-42.80331891323652Clb=-10.8m/s t=-58.4C h=1.6% p=31.8hPa 405.325 MHz Type=RS41-SGP ser=T3251201 http://sondehub.org/T3251201 * http://radiosondy.info/sonde.php?sondenumber=T32512
PY2PE-11T32512012022-06-24 00:29:12-22.7711-42.8029181923728Clb=10.3m/s t=-58.7C h=1.7% p=31.4hPa 405.301 MHz Type=RS41-SGP ser=T3251201 Radiosonde
PU1XMG-14T32512012022-06-24 00:28:30-22.7706-42.80172631723447Clb=6.0m/s t=-58.7C h=1.7% p=32.8hPa 405.301 MHz Type=RS41-SGP ser=T3251201 Radiosonde
PY2PE-11T32512012022-06-24 00:28:10-22.7707-42.8012240723310Clb=4.7m/s t=-59.2C h=1.7% p=33.6hPa 405.301 MHz Type=RS41-SGP ser=T3251201 Radiosonde
PU1UHF-11T32512012022-06-24 00:28:00-22.7709-42.80101323243Clb=6.5m/s t=-59.3C h=1.7% p=33.9hPa 405.325 MHz Type=RS41-SGP ser=T3251201 http://sondehub.org/T3251201 * http://radiosondy.info/sonde.php?sondenumber=T3251201
PU1UHF-11T32512012022-06-24 00:27:30-22.7712-42.8009265623044Clb=8.7m/s t=-60.5C h=1.8% p=35.0hPa 405.325 MHz Type=RS41-SGP ser=T3251201 http://sondehub.org/T3251201 * http://radiosondy.info/sonde.php?sondenumber=T3251201
PU1XMG-14T32512012022-06-24 00:27:28-22.7712-42.8008252423007Clb=8.8m/s t=-60.4C h=1.8% p=35.2hPa 405.301 MHz Type=RS41-SGP ser=T3251201 Radiosonde
PY2PE-11T32512012022-06-24 00:27:08-22.771-42.80032642022887Clb=5.5m/s t=-60.6C h=1.8% p=35.9hPa 405.301 MHz Type=RS41-SGP ser=T3251201 Radiosonde
PU1UHF-11T32512012022-06-24 00:27:00-22.7709-42.79992621722830Clb=5.5m/s t=-60.8C h=1.9% p=36.2hPa 405.325 MHz Type=RS41-SGP ser=T3251201 http://sondehub.org/T3251201 * http://radiosondy.info/sonde.php?sondenumber=T3251201
PU1UHF-11T32512012022-06-24 00:26:30-22.7713-42.79892751522620Clb=7.3m/s t=-59.1C h=1.7% p=37.5hPa 405.325 MHz Type=RS41-SGP ser=T3251201 http://sondehub.org/T3251201 * http://radiosondy.info/sonde.php?sondenumber=T3251201
PU1XMG-14T32512012022-06-24 00:26:26-22.7713-42.79882601322601Clb=6.4m/s t=-59.0C h=1.7% p=37.6hPa 405.301 MHz Type=RS41-SGP ser=T3251201 Radiosonde
PY2PE-11T32512012022-06-24 00:26:06-22.7714-42.79813111122441Clb=7.1m/s t=-59.7C h=1.8% p=38.5hPa 405.301 MHz Type=RS41-SGP ser=T3251201 Radiosonde
PU1UHF-11T32512012022-06-24 00:26:00-22.7715-42.7979273922404Clb=5.7m/s t=-59.6C h=1.7% p=38.7hPa 405.325 MHz Type=RS41-SGP ser=T3251201 http://sondehub.org/T3251201 * http://radiosondy.info/sonde.php?sondenumber=T3251201
PY2PE-11T32512012022-06-24 00:25:34-22.7716-42.79723342622229Clb=7.5m/s t=-60.5C h=1.8% p=39.9hPa 405.301 MHz Type=RS41-SGP ser=T3251201 Radiosonde
PU1UHF-11T32512012022-06-24 00:25:30-22.7718-42.7972901322195Clb=8.9m/s t=-60.7C h=1.9% p=40.1hPa 405.325 MHz Type=RS41-SGP ser=T3251201 http://sondehub.org/T3251201 * http://radiosondy.info/sonde.php?sondenumber=T3251201
PU1XMG-14T32512012022-06-24 00:25:24-22.7719-42.79682941522158Clb=7.8m/s t=-60.5C h=1.8% p=40.3hPa 405.301 MHz Type=RS41-SGP ser=T3251201 Radiosonde
PY2PE-11T32512012022-06-24 00:25:04-22.7724-42.79623182422011Clb=4.5m/s t=-60.4C h=1.8% p=41.2hPa 405.300 MHz Type=RS41-SGP ser=T3251201 Radiosonde
PU1UHF-11T32512012022-06-24 00:25:00-22.7725-42.79612821521983Clb=6.4m/s t=-60.4C h=1.8% p=41.4hPa 405.325 MHz Type=RS41-SGP ser=T3251201 http://sondehub.org/T3251201 * http://radiosondy.info/sonde.php?sondenumber=T3251201
PY2PE-11T32512012022-06-24 00:24:32-22.7732-42.795467921787Clb=10.1m/s t=-60.2C h=1.8% p=42.7hPa 405.301 MHz Type=RS41-SGP ser=T3251201 Radiosonde
PU1XMG-14T32512012022-06-24 00:24:22-22.7734-42.795656621707Clb=9.9m/s t=-60.0C h=1.8% p=43.3hPa 405.301 MHz Type=RS41-SGP ser=T3251201 Radiosonde
PY2PE-11T32512012022-06-24 00:23:30-22.7733-42.79589721334Clb=11.4m/s t=-59.2C h=1.7% p=45.9hPa 405.301 MHz Type=RS41-SGP ser=T3251201 Radiosonde
PU1XMG-14T32512012022-06-24 00:23:20-22.7735-42.795916621252Clb=8.9m/s t=-59.2C h=1.7% p=46.5hPa 405.301 MHz Type=RS41-SGP ser=T3251201 Radiosonde
PU1UHF-11T32512012022-06-24 00:22:30-22.7717-42.79641951920889Clb=10.7m/s t=-61.0C h=1.9% p=49.3hPa 405.325 MHz Type=RS41-SGP ser=T3251201 http://sondehub.org/T3251201 * http://radiosondy.info/sonde.php?sondenumber=T325120
PY2PE-11T32512012022-06-24 00:22:28-22.7716-42.79642022020882Clb=5.5m/s t=-61.0C h=1.9% p=49.3hPa 405.301 MHz Type=RS41-SGP ser=T3251201 Radiosonde
PU1XMG-14T32512012022-06-24 00:22:18-22.7712-42.79621961520803Clb=3.9m/s t=-60.5C h=1.9% p=50.0hPa 405.301 MHz Type=RS41-SGP ser=T3251201 Radiosonde
PU1UHF-11T32512012022-06-24 00:22:00-22.7707-42.7958237720662Clb=6.3m/s t=-59.7C h=1.9% p=51.1hPa 405.325 MHz Type=RS41-SGP ser=T3251201 http://sondehub.org/T3251201 * http://radiosondy.info/sonde.php?sondenumber=T3251201
PU1UHF-11T32512012022-06-24 00:21:30-22.7706-42.79532921120445Clb=3.2m/s t=-58.9C h=1.8% p=52.9hPa 405.325 MHz Type=RS41-SGP ser=T3251201 http://sondehub.org/T3251201 * http://radiosondy.info/sonde.php?sondenumber=T3251201
PY2PE-11T32512012022-06-24 00:21:26-22.7706-42.7952311720424Clb=10.9m/s t=-273.0C h=-1.0% p=-1.0hPa 405.301 MHz Type=RS41 ser=T3251201 Radiosonde
PU1XMG-14T32512012022-06-24 00:21:16-22.7711-42.7953462620338Clb=10.3m/s t=-59.7C h=1.8% p=53.8hPa 405.301 MHz Type=RS41-SGP ser=T3251201 Radiosonde
PU1XMG-14T32512012022-06-24 00:20:44-22.7715-42.7945232920119Clb=5.6m/s t=-62.0C h=2.2% p=55.7hPa 405.301 MHz Type=RS41-SGP ser=T3251201 Radiosonde
PU1UHF-11T32512012022-06-24 00:20:00-22.7708-42.7941121919818Clb=10.4m/s t=-63.7C h=2.6% p=58.4hPa 405.325 MHz Type=RS41-SGP ser=T3251201 http://sondehub.org/T3251201 * http://radiosondy.info/sonde.php?sondenumber=T325120
PU1XMG-14T32512012022-06-24 00:19:42-22.7703-42.79491261719703Clb=2.9m/s t=-63.8C h=2.6% p=59.5hPa 405.301 MHz Type=RS41-SGP ser=T3251201 Radiosonde
PU1UHF-11T32512012022-06-24 00:19:00-22.7689-42.79641531319411Clb=8.0m/s t=-64.2C h=2.7% p=62.5hPa 405.325 MHz Type=RS41-SGP ser=T3251201 http://sondehub.org/T3251201 * http://radiosondy.info/sonde.php?sondenumber=T3251201
PU1XMG-14T32512012022-06-24 00:18:40-22.7686-42.79622401319281Clb=9.9m/s t=-66.6C h=3.3% p=63.8hPa 405.301 MHz Type=RS41-SGP ser=T3251201 Radiosonde
PU1UHF-11T32512012022-06-24 00:18:30-22.7687-42.79641919195Clb=2.8m/s t=-67.1C h=3.5% p=64.7hPa 405.325 MHz Type=RS41-SGP ser=T3251201 http://sondehub.org/T3251201 * http://radiosondy.info/sonde.php?sondenumber=T3251201
PY2PE-11T32512012022-06-24 00:18:20-22.7691-42.7966391719093Clb=4.6m/s t=-273.0C h=-1.0% p=-1.0hPa 405.300 MHz Type=RS41 ser=T3251201 Radiosonde
PU1UHF-11T32512012022-06-24 00:18:00-22.7699-42.7974392618966Clb=12.7m/s t=-66.8C h=3.4% p=67.1hPa 405.325 MHz Type=RS41-SGP ser=T3251201 http://sondehub.org/T3251201 * http://radiosondy.info/sonde.php?sondenumber=T325120
PU1XMG-14T32512012022-06-24 00:17:38-22.7708-42.7989733018806Clb=11.4m/s t=-67.7C h=3.8% p=68.9hPa 405.301 MHz Type=RS41-SGP ser=T3251201 Radiosonde
PU1UHF-11T32512012022-06-24 00:17:30-22.7709-42.7995963118735Clb=5.1m/s t=-67.8C h=4.0% p=69.8hPa 405.325 MHz Type=RS41-SGP ser=T3251201 http://sondehub.org/T3251201 * http://radiosondy.info/sonde.php?sondenumber=T3251201
PU1UHF-11T32512012022-06-24 00:17:00-22.7712-42.8011551918509Clb=4.3m/s t=-66.3C h=4.1% p=72.4hPa 405.325 MHz Type=RS41-SGP ser=T3251201 http://sondehub.org/T3251201 * http://radiosondy.info/sonde.php?sondenumber=T3251201
PU1XMG-14T32512012022-06-24 00:16:36-22.7721-42.8018332418345Clb=6.5m/s t=-65.2C h=3.9% p=74.4hPa 405.301 MHz Type=RS41-SGP ser=T3251201 Radiosonde
PU1UHF-11T32512012022-06-24 00:16:00-22.773-42.8044963018098Clb=6.6m/s t=-68.1C h=5.3% p=77.4hPa 405.325 MHz Type=RS41-SGP ser=T3251201 http://sondehub.org/T3251201 * http://radiosondy.info/sonde.php?sondenumber=T3251201
PU1XMG-14T32512012022-06-24 00:15:34-22.7728-42.8077984317925Clb=5.9m/s t=-68.0C h=5.8% p=79.7hPa 405.301 MHz Type=RS41-SGP ser=T3251201 Radiosonde
PU1UHF-11T32512012022-06-24 00:15:30-22.7727-42.80821045717901Clb=4.7m/s t=-68.1C h=6.2% p=80.0hPa 405.325 MHz Type=RS41-SGP ser=T3251201 http://sondehub.org/T3251201 * http://radiosondy.info/sonde.php?sondenumber=T3251201
PU1UHF-11T32512012022-06-24 00:15:00-22.7716-42.8127906117685Clb=9.4m/s t=-67.7C h=6.9% p=82.9hPa 405.325 MHz Type=RS41-SGP ser=T3251201 http://sondehub.org/T3251201 * http://radiosondy.info/sonde.php?sondenumber=T3251201
PU1XMG-14T32512012022-06-24 00:14:32-22.7715-42.8176927617511Clb=8.2m/s t=-69.9C h=8.2% p=85.3hPa 405.301 MHz Type=RS41-SGP ser=T3251201 Radiosonde
PU1UHF-11T32512012022-06-24 00:14:30-22.7714-42.8182967017492Clb=6.4m/s t=-69.9C h=8.4% p=85.6hPa 405.325 MHz Type=RS41-SGP ser=T3251201 http://sondehub.org/T3251201 * http://radiosondy.info/sonde.php?sondenumber=T3251201
PU1UHF-11T32512012022-06-24 00:14:00-22.7703-42.8243988917300Clb=6.2m/s t=-72.3C h=10.3% p=88.4hPa 405.325 MHz Type=RS41-SGP ser=T3251201 http://sondehub.org/T3251201 * http://radiosondy.info/sonde.php?sondenumber=T325120
PU1XMG-14T32512012022-06-24 00:13:30-22.7686-42.83141099617096Clb=10.5m/s t=-71.6C h=11.0% p=91.5hPa 405.301 MHz Type=RS41-SGP ser=T3251201 Radiosonde
PU1UHF-11T32512012022-06-24 00:13:00-22.7671-42.8386989416863Clb=5.5m/s t=-72.1C h=12.5% p=95.1hPa 405.325 MHz Type=RS41-SGP ser=T3251201 http://sondehub.org/T3251201 * http://radiosondy.info/sonde.php?sondenumber=T325120
PU1UHF-11T32512012022-06-24 00:12:00-22.7658-42.85629511116409Clb=4.6m/s t=-72.2C h=14.5% p=102.8hPa 405.325 MHz Type=RS41-SGP ser=T3251201 http://sondehub.org/T3251201 * http://radiosondy.info/sonde.php?sondenumber=T32512
PU1XMG-14T32512012022-06-24 00:11:56-22.765-42.86179911716266Clb=11.8m/s t=-73.0C h=15.1% p=105.2hPa 405.301 MHz Type=RS41-SGP ser=T3251201 Radiosonde
PU1UHF-11T32512012022-06-24 00:11:30-22.764-42.865510612816171Clb=6.7m/s t=-73.6C h=17.1% p=106.9hPa 405.325 MHz Type=RS41-SGP ser=T3251201 http://sondehub.org/T3251201 * http://radiosondy.info/sonde.php?sondenumber=T32512
PU1UHF-11T32512012022-06-24 00:11:00-22.7626-42.87410510915949Clb=7.0m/s t=-73.6C h=18.0% p=111.1hPa 405.325 MHz Type=RS41-SGP ser=T3251201 http://sondehub.org/T3251201 * http://radiosondy.info/sonde.php?sondenumber=T32512
PU1XMG-14T32512012022-06-24 00:10:54-22.7623-42.8754989815887Clb=9.3m/s t=-73.1C h=18.0% p=112.2hPa 405.301 MHz Type=RS41-SGP ser=T3251201 Radiosonde
PU1UHF-11T32512012022-06-24 00:10:30-22.7612-42.8823989315672Clb=10.9m/s t=-71.7C h=18.9% p=116.4hPa 405.325 MHz Type=RS41-SGP ser=T3251201 http://sondehub.org/T3251201 * http://radiosondy.info/sonde.php?sondenumber=T3251
PU1UHF-11T32512012022-06-24 00:10:00-22.7608-42.89839115444Clb=8.4m/s t=-70.8C h=20.7% p=120.9hPa 405.325 MHz Type=RS41-SGP ser=T3251201 http://sondehub.org/T3251201 * http://radiosondy.info/sonde.php?sondenumber=T32512
PU1XMG-14T32512012022-06-24 00:09:52-22.761-42.8928511115396Clb=8.3m/s t=-70.7C h=22.3% p=121.9hPa 405.301 MHz Type=RS41-SGP ser=T3251201 Radiosonde
PU1UHF-11T32512012022-06-24 00:09:00-22.7644-42.90928013314968Clb=12.7m/s t=-72.4C h=24.6% p=131.0hPa 405.325 MHz Type=RS41-SGP ser=T3251201 http://sondehub.org/T3251201 * http://radiosondy.info/sonde.php?sondenumber=T3251
PU1XMG-14T32512012022-06-24 00:08:50-22.765-42.91268015014881Clb=10.3m/s t=-71.7C h=24.0% p=133.0hPa 405.301 MHz Type=RS41-SGP ser=T3251201 Radiosonde
PU1UHF-11T32512012022-06-24 00:08:00-22.768-42.93378615614448Clb=8.1m/s t=-70.2C h=26.6% p=143.1hPa 405.325 MHz Type=RS41-SGP ser=T3251201 http://sondehub.org/T3251201 * http://radiosondy.info/sonde.php?sondenumber=T32512
PU1XMG-14T32512012022-06-24 00:07:48-22.7682-42.93898715214356Clb=8.7m/s t=-69.5C h=27.4% p=145.2hPa 405.301 MHz Type=RS41-SGP ser=T3251201 Radiosonde
PU1UHF-11T32512012022-06-24 00:07:30-22.7684-42.94719515214185Clb=6.7m/s t=-68.3C h=28.1% p=149.4hPa 405.325 MHz Type=RS41-SGP ser=T3251201 http://sondehub.org/T3251201 * http://radiosondy.info/sonde.php?sondenumber=T32512
PU1UHF-11T32512012022-06-24 00:07:00-22.7684-42.95879015013948Clb=7.1m/s t=-67.1C h=27.6% p=155.3hPa 405.325 MHz Type=RS41-SGP ser=T3251201 http://sondehub.org/T3251201 * http://radiosondy.info/sonde.php?sondenumber=T32512
PU1UHF-11T32512012022-06-24 00:06:30-22.7673-42.97099813913689Clb=11.0m/s t=-65.7C h=26.6% p=162.1hPa 405.325 MHz Type=RS41-SGP ser=T3251201 http://sondehub.org/T3251201 * http://radiosondy.info/sonde.php?sondenumber=T3251
PU1UHF-11T32512012022-06-24 00:06:00-22.7669-42.98188912613427Clb=11.2m/s t=-63.9C h=24.9% p=169.1hPa 405.325 MHz Type=RS41-SGP ser=T3251201 http://sondehub.org/T3251201 * http://radiosondy.info/sonde.php?sondenumber=T3251
PU1XMG-14T32512012022-06-24 00:05:44-22.767-42.98758112213277Clb=9.6m/s t=-62.9C h=25.6% p=173.3hPa 405.301 MHz Type=RS41-SGP ser=T3251201 Radiosonde
PU1UHF-11T32512012022-06-24 00:05:30-22.7677-42.99298414113146Clb=8.4m/s t=-62.2C h=28.3% p=177.0hPa 405.325 MHz Type=RS41-SGP ser=T3251201 http://sondehub.org/T3251201 * http://radiosondy.info/sonde.php?sondenumber=T32512
PU1UHF-11T32512012022-06-24 00:05:00-22.7693-43.0048113512879Clb=10.5m/s t=-60.0C h=29.7% p=184.8hPa 405.325 MHz Type=RS41-SGP ser=T3251201 http://sondehub.org/T3251201 * http://radiosondy.info/sonde.php?sondenumber=T3251
PY2PE-11T32512012022-06-24 00:04:52-22.7696-43.00668013912814Clb=8.9m/s t=-59.4C h=30.1% p=186.7hPa 405.300 MHz Type=RS41-SGP ser=T3251201 Radiosonde
PU1XMG-14T32512012022-06-24 00:04:42-22.7708-43.01488815412622Clb=11.3m/s t=-57.9C h=32.9% p=192.4hPa 405.301 MHz Type=RS41-SGP ser=T3251201 Radiosonde
PU1UHF-11T32512012022-06-24 00:04:00-22.7725-43.0267813712343Clb=8.2m/s t=-55.8C h=21.1% p=201.0hPa 405.325 MHz Type=RS41-SGP ser=T3251201 http://sondehub.org/T3251201 * http://radiosondy.info/sonde.php?sondenumber=T32512
PU1UHF-11T32512012022-06-24 00:03:30-22.775-43.03737412412038Clb=8.5m/s t=-53.7C h=25.5% p=210.8hPa 405.325 MHz Type=RS41-SGP ser=T3251201 http://sondehub.org/T3251201 * http://radiosondy.info/sonde.php?sondenumber=T32512
PU1XMG-14T32512012022-06-24 00:03:08-22.7764-43.04387813311885Clb=12.5m/s t=-52.8C h=28.0% p=215.9hPa 405.301 MHz Type=RS41-SGP ser=T3251201 Radiosonde
PY2PE-11T32512012022-06-24 00:02:48-22.7774-43.0506879811691Clb=8.1m/s t=-51.1C h=-1.0% p=-1.0hPa 405.300 MHz Type=RS41-SGP ser=T3251201 Radiosonde
PU1UHF-11T32512012022-06-24 00:02:30-22.7783-43.05618211911555Clb=5.5m/s t=-49.9C h=20.1% p=227.1hPa 405.325 MHz Type=RS41-SGP ser=T3251201 http://sondehub.org/T3251201 * http://radiosondy.info/sonde.php?sondenumber=T32512
PU1XMG-14T32512012022-06-24 00:02:06-22.7796-43.0637211511378Clb=7.4m/s t=-48.3C h=19.7% p=233.3hPa 405.301 MHz Type=RS41-SGP ser=T3251201 Radiosonde
PU1UHF-11T32512012022-06-24 00:02:00-22.7799-43.0658611311329Clb=5.9m/s t=-47.9C h=21.4% p=234.9hPa 405.325 MHz Type=RS41-SGP ser=T3251201 http://sondehub.org/T3251201 * http://radiosondy.info/sonde.php?sondenumber=T32512
PU1UHF-11T32512012022-06-24 00:01:30-22.7821-43.07497612211109Clb=11.4m/s t=-46.9C h=39.1% p=242.9hPa 405.325 MHz Type=RS41-SGP ser=T3251201 http://sondehub.org/T3251201 * http://radiosondy.info/sonde.php?sondenumber=T3251
PU1XMG-14T32512012022-06-24 00:01:04-22.7841-43.08267812810901Clb=5.7m/s t=-45.5C h=45.5% p=250.5hPa 405.301 MHz Type=RS41-SGP ser=T3251201 Radiosonde
PU1XMG-14T32512012022-06-24 00:00:02-22.7888-43.10337311510421Clb=9.1m/s t=-41.1C h=31.6% p=269.0hPa 405.301 MHz Type=RS41-SGP ser=T3251201 Radiosonde
PU1UHF-11T32512012022-06-23 23:59:30-22.7911-43.11327912210201Clb=6.9m/s t=-39.1C h=21.0% p=277.7hPa 405.325 MHz Type=RS41-SGP ser=T3251201 http://sondehub.org/T3251201 * http://radiosondy.info/sonde.php?sondenumber=T32512
PU1UHF-11T32512012022-06-23 23:59:00-22.7927-43.1228110710008Clb=4.3m/s t=-37.5C h=18.0% p=285.7hPa 405.325 MHz Type=RS41-SGP ser=T3251201 http://sondehub.org/T3251201 * http://radiosondy.info/sonde.php?sondenumber=T32512
PU1UHF-11T32512012022-06-23 23:58:30-22.7941-43.1307811029829Clb=9.7m/s t=-36.5C h=13.5% p=293.1hPa 405.325 MHz Type=RS41-SGP ser=T3251201 http://sondehub.org/T3251201 * http://radiosondy.info/sonde.php?sondenumber=T32512
PY2PE-11T32512012022-06-23 23:58:08-22.7947-43.1369801199683Clb=6.2m/s t=-35.4C h=9.5% p=299.3hPa 405.301 MHz Type=RS41-SGP ser=T3251201 Radiosonde
PU1UHF-11T32512012022-06-23 23:58:00-22.7948-43.139493969614Clb=6.1m/s t=-34.9C h=8.8% p=302.2hPa 405.325 MHz Type=RS41-SGP ser=T3251201 http://sondehub.org/T3251201 * http://radiosondy.info/sonde.php?sondenumber=T325120
PU1XMG-14T32512012022-06-23 23:57:58-22.7948-43.14911029602Clb=5.2m/s t=-34.9C h=8.8% p=302.7hPa 405.301 MHz Type=RS41-SGP ser=T3251201 Radiosonde
PU1UHF-11T32512012022-06-23 23:57:30-22.795-43.1473861009436Clb=8.1m/s t=-33.4C h=8.5% p=310.0hPa 405.325 MHz Type=RS41-SGP ser=T3251201 http://sondehub.org/T3251201 * http://radiosondy.info/sonde.php?sondenumber=T325120
PY2PE-11T32512012022-06-23 23:57:06-22.7952-43.153188919301Clb=4.7m/s t=-32.4C h=8.8% p=315.9hPa 405.301 MHz Type=RS41-SGP ser=T3251201 Radiosonde
PU1UHF-11T32512012022-06-23 23:57:00-22.7953-43.154886939263Clb=4.9m/s t=-32.0C h=8.2% p=317.6hPa 405.325 MHz Type=RS41-SGP ser=T3251201 http://sondehub.org/T3251201 * http://radiosondy.info/sonde.php?sondenumber=T325120
PU1XMG-14T32512012022-06-23 23:56:56-22.7954-43.155884899240Clb=7.9m/s t=-31.7C h=8.0% p=318.8hPa 405.301 MHz Type=RS41-SGP ser=T3251201 Radiosonde
PU1UHF-11T32512012022-06-23 23:56:00-22.7965-43.169577918865Clb=7.2m/s t=-28.5C h=6.4% p=335.8hPa 405.325 MHz Type=RS41-SGP ser=T3251201 http://sondehub.org/T3251201 * http://radiosondy.info/sonde.php?sondenumber=T325120
PU1XMG-14T32512012022-06-23 23:55:54-22.7968-43.171185938834Clb=4.9m/s t=-28.3C h=6.6% p=337.2hPa 405.301 MHz Type=RS41-SGP ser=T3251201 Radiosonde
PU1XMG-14T32512012022-06-23 23:55:22-22.798-43.178276938647Clb=7.2m/s t=-26.6C h=5.4% p=346.0hPa 405.301 MHz Type=RS41-SGP ser=T3251201 Radiosonde
PY2PE-11T32512012022-06-23 23:55:02-22.7992-43.183171768536Clb=5.5m/s t=-25.7C h=5.0% p=351.6hPa 405.301 MHz Type=RS41-SGP ser=T3251201 Radiosonde
PU1UHF-11T32512012022-06-23 23:55:00-22.7994-43.183573788525Clb=5.4m/s t=-25.6C h=4.9% p=352.1hPa 405.325 MHz Type=RS41-SGP ser=T3251201 http://sondehub.org/T3251201 * http://radiosondy.info/sonde.php?sondenumber=T325120
PU1UHF-11T32512012022-06-23 23:54:30-22.8013-43.190466858337Clb=8.3m/s t=-24.3C h=3.5% p=361.2hPa 405.325 MHz Type=RS41-SGP ser=T3251201 http://sondehub.org/T3251201 * http://radiosondy.info/sonde.php?sondenumber=T325120
PU1XMG-14T32512012022-06-23 23:54:20-22.802-43.192567918283Clb=4.5m/s t=-24.1C h=3.1% p=363.9hPa 405.301 MHz Type=RS41-SGP ser=T3251201 Radiosonde
PU1UHF-11T32512012022-06-23 23:54:00-22.8036-43.19773838159Clb=4.4m/s t=-23.5C h=3.0% p=370.1hPa 405.325 MHz Type=RS41-SGP ser=T3251201 http://sondehub.org/T3251201 * http://radiosondy.info/sonde.php?sondenumber=T325120
PU1UHF-11T32512012022-06-23 23:53:30-22.8062-43.202553788007Clb=6.7m/s t=-23.9C h=4.9% p=377.9hPa 405.325 MHz Type=RS41-SGP ser=T3251201 http://sondehub.org/T3251201 * http://radiosondy.info/sonde.php?sondenumber=T325120
PU1XMG-14T32512012022-06-23 23:53:18-22.8072-43.204157677934Clb=5.9m/s t=-23.5C h=5.3% p=381.6hPa 405.301 MHz Type=RS41-SGP ser=T3251201 Radiosonde
PU1UHF-11T32512012022-06-23 23:53:00-22.8083-43.207178707815Clb=8.7m/s t=-22.7C h=7.5% p=387.7hPa 405.325 MHz Type=RS41-SGP ser=T3251201 http://sondehub.org/T3251201 * http://radiosondy.info/sonde.php?sondenumber=T325120
PU1XMG-14T32512012022-06-23 23:52:16-22.8106-43.212849447560Clb=5.1m/s t=-21.0C h=10.3% p=401.4hPa 405.301 MHz Type=RS41-SGP ser=T3251201 Radiosonde
PU1UHF-11T32512012022-06-23 23:52:00-22.8118-43.214959597457Clb=8.9m/s t=-20.0C h=9.8% p=407.1hPa 405.325 MHz Type=RS41-SGP ser=T3251201 http://sondehub.org/T3251201 * http://radiosondy.info/sonde.php?sondenumber=T325120
PU1UHF-11T32512012022-06-23 23:51:30-22.8139-43.218960657277Clb=6.3m/s t=-18.6C h=11.1% p=416.9hPa 405.325 MHz Type=RS41-SGP ser=T3251201 http://sondehub.org/T3251201 * http://radiosondy.info/sonde.php?sondenumber=T32512
PU1XMG-14T32512012022-06-23 23:51:14-22.8149-43.220773527181Clb=7.5m/s t=-17.7C h=10.3% p=422.4hPa 405.301 MHz Type=RS41-SGP ser=T3251201 Radiosonde
PU1UHF-11T32512012022-06-23 23:51:00-22.8156-43.222351397088Clb=6.3m/s t=-16.9C h=9.4% p=427.6hPa 405.325 MHz Type=RS41-SGP ser=T3251201 http://sondehub.org/T3251201 * http://radiosondy.info/sonde.php?sondenumber=T325120
PU1UHF-11T32512012022-06-23 23:50:30-22.8172-43.225961576896Clb=5.6m/s t=-15.1C h=8.4% p=438.5hPa 405.325 MHz Type=RS41-SGP ser=T3251201 http://sondehub.org/T3251201 * http://radiosondy.info/sonde.php?sondenumber=T325120
PU1XMG-14T32512012022-06-23 23:50:12-22.8175-43.227875396789Clb=8.5m/s t=-14.2C h=8.4% p=445.1hPa 405.301 MHz Type=RS41-SGP ser=T3251201 Radiosonde
PU1UHF-11T32512012022-06-23 23:50:00-22.8181-43.229368466716Clb=5.9m/s t=-13.7C h=8.8% p=449.1hPa 405.325 MHz Type=RS41-SGP ser=T3251201 http://sondehub.org/T3251201 * http://radiosondy.info/sonde.php?sondenumber=T325120
PU1UHF-11T32512012022-06-23 23:49:30-22.8178-43.2324105246515Clb=6.7m/s t=-12.3C h=6.1% p=461.2hPa 405.325 MHz Type=RS41-SGP ser=T3251201 http://sondehub.org/T3251201 * http://radiosondy.info/sonde.php?sondenumber=T325120
PU1XMG-14T32512012022-06-23 23:49:10-22.8175-43.234190336393Clb=8.9m/s t=-11.1C h=4.4% p=468.5hPa 405.301 MHz Type=RS41-SGP ser=T3251201 Radiosonde
PU1UHF-11T32512012022-06-23 23:49:00-22.8175-43.2351108356325Clb=10.9m/s t=-10.5C h=2.9% p=472.6hPa 405.325 MHz Type=RS41-SGP ser=T3251201 http://sondehub.org/T3251201 * http://radiosondy.info/sonde.php?sondenumber=T32512
PU1XMG-14T32512012022-06-23 23:48:08-22.816-43.2412100525985Clb=9.1m/s t=-10.3C h=9.9% p=493.8hPa 405.301 MHz Type=RS41-SGP ser=T3251201 Radiosonde
PU1UHF-11T32512012022-06-23 23:48:00-22.8159-43.2423111485939Clb=7.0m/s t=-10.2C h=13.5% p=496.7hPa 405.325 MHz Type=RS41-SGP ser=T3251201 http://sondehub.org/T3251201 * http://radiosondy.info/sonde.php?sondenumber=T32512
PU1UHF-11T32512012022-06-23 23:47:30-22.8154-43.246682445754Clb=5.5m/s t=-8.9C h=15.3% p=508.9hPa 405.325 MHz Type=RS41-SGP ser=T3251201 http://sondehub.org/T3251201 * http://radiosondy.info/sonde.php?sondenumber=T325120
PU1XMG-14T32512012022-06-23 23:47:06-22.8152-43.2495101465588Clb=7.9m/s t=-7.6C h=16.3% p=519.8hPa 405.301 MHz Type=RS41-SGP ser=T3251201 Radiosonde
PU1UHF-11T32512012022-06-23 23:47:00-22.815-43.250391525542Clb=6.6m/s t=-7.3C h=16.0% p=522.8hPa 405.325 MHz Type=RS41-SGP ser=T3251201 http://sondehub.org/T3251201 * http://radiosondy.info/sonde.php?sondenumber=T325120
PU1XMG-14T32512012022-06-23 23:46:34-22.8151-43.253880655388Clb=6.0m/s t=-6.7C h=21.1% p=533.0hPa 405.301 MHz Type=RS41-SGP ser=T3251201 Radiosonde
PU1UHF-11T32512012022-06-23 23:46:30-22.8153-43.254581395353Clb=7.4m/s t=-6.8C h=24.7% p=535.5hPa 405.325 MHz Type=RS41-SGP ser=T3251201 http://sondehub.org/T3251201 * http://radiosondy.info/sonde.php?sondenumber=T325120
PU1UHF-11T32512012022-06-23 23:46:00-22.8166-43.257985465180Clb=5.2m/s t=-5.7C h=27.7% p=547.5hPa 405.325 MHz Type=RS41-SGP ser=T3251201 http://sondehub.org/T3251201 * http://radiosondy.info/sonde.php?sondenumber=T325120
PU1XMG-14T32512012022-06-23 23:45:32-22.8172-43.26114264997Clb=5.8m/s t=-5.0C h=31.9% p=560.2hPa 405.301 MHz Type=RS41-SGP ser=T3251201 Radiosonde
PU1UHF-11T32512012022-06-23 23:45:30-22.8171-43.2602144224975Clb=6.4m/s t=-4.8C h=31.8% p=561.8hPa 405.325 MHz Type=RS41-SGP ser=T3251201 http://sondehub.org/T3251201 * http://radiosondy.info/sonde.php?sondenumber=T325120
PU1UHF-11T32512012022-06-23 23:45:00-22.8165-43.261324844790Clb=6.1m/s t=-3.2C h=30.0% p=575.2hPa 405.325 MHz Type=RS41-SGP ser=T3251201 http://sondehub.org/T3251201 * http://radiosondy.info/sonde.php?sondenumber=T325120
PU1XMG-14T32512012022-06-23 23:44:30-22.8157-43.2616198264582Clb=6.2m/s t=-1.2C h=26.9% p=590.5hPa 405.301 MHz Type=RS41-SGP ser=T3251201 Radiosonde
PU1UHF-11T32512012022-06-23 23:43:30-22.8136-43.2619165244168Clb=6.8m/s t=2.6C h=20.5% p=621.5hPa 405.325 MHz Type=RS41-SGP ser=T3251201 http://sondehub.org/T3251201 * http://radiosondy.info/sonde.php?sondenumber=T3251201
PU1XMG-14T32512012022-06-23 23:43:28-22.8135-43.262173304162Clb=6.9m/s t=2.6C h=20.3% p=622.0hPa 405.301 MHz Type=RS41-SGP ser=T3251201 Radiosonde
PU1UHF-11T32512012022-06-23 23:43:00-22.8117-43.262173303961Clb=10.4m/s t=4.5C h=18.2% p=637.6hPa 405.325 MHz Type=RS41-SGP ser=T3251201 http://sondehub.org/T3251201 * http://radiosondy.info/sonde.php?sondenumber=T325120
PU1UHF-11T32512012022-06-23 23:42:30-22.8097-43.2621189313754Clb=7.3m/s t=6.5C h=16.0% p=654.0hPa 405.325 MHz Type=RS41-SGP ser=T3251201 http://sondehub.org/T3251201 * http://radiosondy.info/sonde.php?sondenumber=T3251201
PU1XMG-14T32512012022-06-23 23:42:26-22.8094-43.262192303722Clb=9.1m/s t=6.8C h=15.3% p=656.6hPa 405.301 MHz Type=RS41-SGP ser=T3251201 Radiosonde
PU1UHF-11T32512012022-06-23 23:42:00-22.8076-43.2621163243531Clb=6.3m/s t=8.1C h=1.4% p=671.8hPa 405.325 MHz Type=RS41-SGP ser=T3251201 http://sondehub.org/T3251201 * http://radiosondy.info/sonde.php?sondenumber=T3251201
PU1UHF-11T32512012022-06-23 23:41:30-22.8063-43.2628134153313Clb=10.2m/s t=8.8C h=1.6% p=689.7hPa 405.325 MHz Type=RS41-SGP ser=T3251201 http://sondehub.org/T3251201 * http://radiosondy.info/sonde.php?sondenumber=T3251201
PU1XMG-14T32512012022-06-23 23:41:24-22.8062-43.2628127113268Clb=8.3m/s t=8.8C h=1.6% p=693.6hPa 405.301 MHz Type=RS41-SGP ser=T3251201 Radiosonde
PU1UHF-11T32512012022-06-23 23:41:00-22.806-43.2626234113088Clb=7.9m/s t=9.3C h=4.4% p=708.6hPa 405.325 MHz Type=RS41-SGP ser=T3251201 http://sondehub.org/T3251201 * http://radiosondy.info/sonde.php?sondenumber=T3251201
PU1UHF-11T32512012022-06-23 23:40:31-22.8052-43.2617219152863Clb=9.1m/s t=10.3C h=18.4% p=728.1hPa 405.325 MHz Type=RS41-SGP ser=T3251201 http://sondehub.org/T3251201 * http://radiosondy.info/sonde.php?sondenumber=T325120
PU1XMG-14T32512012022-06-23 23:40:22-22.8052-43.2614266192802Clb=7.2m/s t=10.7C h=20.1% p=733.9hPa 405.301 MHz Type=RS41-SGP ser=T3251201 Radiosonde
PU1UHF-11T32512012022-06-23 23:40:00-22.8052-43.260627792637Clb=8.2m/s t=12.1C h=18.4% p=748.1hPa 405.325 MHz Type=RS41-SGP ser=T3251201 http://sondehub.org/T3251201 * http://radiosondy.info/sonde.php?sondenumber=T325120
PU1XMG-14T32512012022-06-23 23:39:51-22.8052-43.2603251152578Clb=7.1m/s t=12.5C h=17.8% p=753.5hPa 405.301 MHz Type=RS41-SGP ser=T3251201 Radiosonde
PU1UHF-11T32512012022-06-23 23:39:30-22.8054-43.2588283222419Clb=6.5m/s t=13.5C h=20.3% p=767.9hPa 405.325 MHz Type=RS41-SGP ser=T3251201 http://sondehub.org/T3251201 * http://radiosondy.info/sonde.php?sondenumber=T325120
PU1XMG-14T32512012022-06-23 23:39:20-22.8055-43.2582282192350Clb=6.1m/s t=14.0C h=21.0% p=774.2hPa 405.301 MHz Type=RS41-SGP ser=T3251201 Radiosonde
PU1UHF-11T32512012022-06-23 23:39:00-22.8058-43.257291202207Clb=8.6m/s t=15.2C h=20.7% p=787.4hPa 405.325 MHz Type=RS41-SGP ser=T3251201 http://sondehub.org/T3251201 * http://radiosondy.info/sonde.php?sondenumber=T325120
PU1XMG-14T32512012022-06-23 23:38:49-22.806-43.2562305262124Clb=5.9m/s t=15.8C h=21.1% p=794.9hPa 405.301 MHz Type=RS41-SGP ser=T3251201 Radiosonde
PU1UHF-11T32512012022-06-23 23:38:30-22.8064-43.2553302201986Clb=10.0m/s t=16.7C h=21.5% p=808.0hPa 405.325 MHz Type=RS41-SGP ser=T3251201 http://sondehub.org/T3251201 * http://radiosondy.info/sonde.php?sondenumber=T32512
PU1XMG-14T32512012022-06-23 23:38:17-22.8067-43.2546296191896Clb=7.7m/s t=17.2C h=22.5% p=816.6hPa 405.301 MHz Type=RS41-SGP ser=T3251201 Radiosonde
PU1UHF-11T32512012022-06-23 23:38:00-22.8071-43.2536290201761Clb=6.8m/s t=18.0C h=26.5% p=-1.0hPa 405.325 MHz Type=RS41-SGP ser=T3251201 http://sondehub.org/T3251201 * http://radiosondy.info/sonde.php?sondenumber=T3251201
PU1XMG-14T32512012022-06-23 23:37:46-22.8075-43.2531316151663Clb=8.7m/s t=18.5C h=-1.0% p=-1.0hPa 405.301 MHz Type=RS41 ser=T3251201 Radiosonde
PU1UHF-11T32512012022-06-23 23:37:30-22.8079-43.2523303201537Clb=8.2m/s t=19.3C h=28.1% p=-1.0hPa 405.325 MHz Type=RS41-SGP ser=T3251201 http://sondehub.org/T3251201 * http://radiosondy.info/sonde.php?sondenumber=T3251201